Time;durP1;ratioP1;P1;durP2;ratioP2;P2;SDS_P1;SDS_P2;PMS_P1;PMS_P2;Temp;Humidity;BMP_temperature;BMP_pressure;BME280_temperature;BME280_humidity;BME280_pressure;Samples;Min_cycle;Max_cycle;Signal;HPM_P1;HPM_P2
2022/03/11 00:00:49;;;;;;;22.23;10.83;;;;;;;7.48;43.23;101741.47;4962348;28;20436;-72
2022/03/11 00:03:15;;;;;;;20.45;10.63;;;;;;;7.53;43.35;101752.53;4977561;28;20135;-73
2022/03/11 00:05:42;;;;;;;20.02;10.57;;;;;;;7.52;43.43;101750.84;4979310;28;20030;-71
2022/03/11 00:08:08;;;;;;;20.13;10.93;;;;;;;7.47;43.10;101742.44;4973902;28;20094;-73
2022/03/11 00:10:37;;;;;;;17.73;10.57;;;;;;;7.41;43.52;101745.59;4978164;28;20478;-71
2022/03/11 00:13:02;;;;;;;20.33;10.88;;;;;;;7.41;43.51;101746.44;4975342;28;20037;-71
2022/03/11 00:15:27;;;;;;;21.63;11.23;;;;;;;7.38;43.68;101746.69;4976763;28;20050;-71
2022/03/11 00:17:53;;;;;;;17.40;10.40;;;;;;;7.31;43.64;101731.47;4975476;28;20026;-71
2022/03/11 00:20:21;;;;;;;17.30;11.00;;;;;;;7.33;43.89;101738.31;4972054;28;20522;-71
2022/03/11 00:22:48;;;;;;;17.70;10.57;;;;;;;7.29;43.77;101736.06;4975696;28;20027;-71
2022/03/11 00:25:13;;;;;;;18.97;10.77;;;;;;;7.25;43.70;101726.72;4981414;28;20030;-71
2022/03/11 00:27:39;;;;;;;15.57;9.63;;;;;;;7.31;43.64;101740.25;4981751;28;20497;-71
2022/03/11 00:30:05;;;;;;;21.87;10.63;;;;;;;7.31;43.82;101734.97;4971260;28;20019;-71
2022/03/11 00:32:30;;;;;;;18.03;10.57;;;;;;;7.28;44.12;101737.03;4979715;28;20045;-72
2022/03/11 00:34:55;;;;;;;19.90;10.80;;;;;;;7.28;44.07;101734.38;4973637;28;20475;-71
2022/03/11 00:37:21;;;;;;;19.00;10.90;;;;;;;7.29;44.00;101728.13;4980406;28;20034;-71
2022/03/11 00:39:46;;;;;;;19.07;10.63;;;;;;;7.29;43.98;101730.78;4979705;28;20074;-71
2022/03/11 00:42:11;;;;;;;22.00;10.60;;;;;;;7.27;43.97;101727.41;4978111;28;20047;-71
2022/03/11 00:44:38;;;;;;;20.60;11.50;;;;;;;7.28;43.74;101723.81;4979758;28;20026;-71
2022/03/11 00:47:04;;;;;;;18.00;10.70;;;;;;;7.20;43.72;101715.66;4965086;28;20022;-72
2022/03/11 00:49:29;;;;;;;17.53;10.37;;;;;;;7.28;43.65;101721.19;4978594;28;20026;-71
2022/03/11 00:51:54;;;;;;;18.63;10.30;;;;;;;7.24;43.81;101725.03;4976151;28;20023;-71
2022/03/11 00:54:20;;;;;;;20.57;10.97;;;;;;;7.27;43.62;101728.25;4978408;28;20046;-71
2022/03/11 00:56:45;;;;;;;21.63;10.70;;;;;;;7.25;43.82;101721.44;4972487;28;20337;-71
2022/03/11 00:59:10;;;;;;;22.90;11.27;;;;;;;7.20;43.83;101721.78;4972264;28;20039;-71
2022/03/11 01:01:35;;;;;;;20.37;11.37;;;;;;;7.18;43.97;101718.44;4974322;28;20027;-71
2022/03/11 01:04:01;;;;;;;18.23;10.37;;;;;;;7.15;43.85;101721.34;4973966;28;20066;-71
2022/03/11 01:06:26;;;;;;;19.67;11.17;;;;;;;7.15;43.85;101719.53;4973977;28;20497;-71
2022/03/11 01:08:51;;;;;;;19.97;10.60;;;;;;;7.12;43.96;101706.59;4977591;28;20038;-71
2022/03/11 01:11:17;;;;;;;21.43;11.60;;;;;;;7.12;43.84;101708.38;4971687;28;20061;-72
2022/03/11 01:13:42;;;;;;;24.77;11.40;;;;;;;7.04;44.16;101703.75;4977890;28;20039;-71
2022/03/11 01:16:07;;;;;;;26.63;11.60;;;;;;;7.08;44.30;101694.59;4977831;28;20033;-71
2022/03/11 01:18:33;;;;;;;19.00;10.87;;;;;;;7.03;44.08;101683.59;4971321;28;20057;-71
2022/03/11 01:20:59;;;;;;;20.43;10.73;;;;;;;7.02;44.10;101678.44;4977557;28;20026;-71
2022/03/11 01:23:24;;;;;;;17.30;10.70;;;;;;;7.08;44.26;101691.94;4976713;28;20379;-71
2022/03/11 01:25:50;;;;;;;17.80;10.50;;;;;;;7.02;44.15;101681.91;4974376;28;20085;-72
2022/03/11 01:28:15;;;;;;;18.97;11.10;;;;;;;7.01;44.19;101685.50;4975168;28;20046;-72
2022/03/11 01:30:41;;;;;;;17.80;10.57;;;;;;;6.99;44.46;101678.69;4975069;28;20027;-71
2022/03/11 01:33:07;;;;;;;19.93;10.93;;;;;;;7.02;44.33;101686.34;4979454;28;20035;-70
2022/03/11 01:35:32;;;;;;;18.37;11.30;;;;;;;6.99;44.35;101668.97;4976675;28;20034;-72
2022/03/11 01:37:58;;;;;;;20.30;10.80;;;;;;;6.96;44.36;101677.13;4980432;28;20521;-72
2022/03/11 01:40:24;;;;;;;15.60;10.17;;;;;;;6.96;44.34;101665.75;4978551;28;20058;-71
2022/03/11 01:42:49;;;;;;;17.03;10.23;;;;;;;6.93;44.27;101665.97;4983704;28;20030;-71
2022/03/11 01:45:14;;;;;;;19.30;11.10;;;;;;;6.91;44.35;101658.16;4977436;28;20057;-71
2022/03/11 01:47:40;;;;;;;18.57;10.57;;;;;;;6.87;44.35;101656.75;4979864;28;20109;-71
2022/03/11 01:50:06;;;;;;;23.37;10.83;;;;;;;6.78;44.76;101642.50;4976239;28;20434;-70
2022/03/11 01:52:31;;;;;;;21.73;11.60;;;;;;;6.78;44.80;101647.78;4978870;28;20062;-71
2022/03/11 01:54:57;;;;;;;18.13;10.73;;;;;;;6.74;44.94;101632.34;4980764;28;20556;-71
2022/03/11 01:57:23;;;;;;;16.43;10.43;;;;;;;6.75;44.75;101641.94;4980659;28;20034;-71
2022/03/11 01:59:48;;;;;;;17.43;10.07;;;;;;;6.77;44.79;101637.38;4979126;28;20027;-70
2022/03/11 02:02:14;;;;;;;18.93;10.57;;;;;;;6.71;44.83;101627.31;4979356;28;20094;-70
2022/03/11 02:04:41;;;;;;;17.33;10.20;;;;;;;6.73;44.80;101628.03;4967936;28;20218;-71
2022/03/11 02:07:06;;;;;;;17.73;10.17;;;;;;;6.73;44.82;101622.75;4977600;28;20037;-71
2022/03/11 02:09:31;;;;;;;20.30;10.90;;;;;;;6.67;44.89;101626.72;4982005;28;20093;-71
2022/03/11 02:11:57;;;;;;;21.03;10.97;;;;;;;6.62;44.93;101628.88;4982461;28;20037;-71
2022/03/11 02:14:22;;;;;;;22.93;11.37;;;;;;;6.53;44.89;101606.75;4982028;28;20034;-72
2022/03/11 02:16:47;;;;;;;21.60;11.17;;;;;;;6.55;45.07;101617.16;4979344;28;20030;-71
2022/03/11 02:19:13;;;;;;;18.90;10.97;;;;;;;6.53;45.09;101608.53;4975138;28;20041;-71
2022/03/11 02:21:43;;;;;;;18.43;11.10;;;;;;;6.48;45.10;101606.28;4979553;28;20034;-71
2022/03/11 02:24:12;;;;;;;16.60;10.63;;;;;;;6.44;45.09;101596.09;4978619;28;20022;-72
2022/03/11 02:26:38;;;;;;;19.67;11.07;;;;;;;6.46;45.24;101604.72;4980438;28;20034;-71
2022/03/11 02:29:05;;;;;;;18.47;11.20;;;;;;;6.38;45.17;101589.53;4975921;28;20025;-71
2022/03/11 02:31:31;;;;;;;20.03;11.33;;;;;;;6.42;45.35;101595.41;4979205;28;20034;-71
2022/03/11 02:33:57;;;;;;;22.40;11.23;;;;;;;6.40;45.11;101594.69;4981480;28;20394;-70
2022/03/11 02:36:23;;;;;;;19.10;10.73;;;;;;;6.37;45.36;101587.03;4979680;28;20026;-71
2022/03/11 02:38:49;;;;;;;19.83;10.80;;;;;;;6.35;45.43;101592.41;4979915;28;20041;-70
2022/03/11 02:41:14;;;;;;;22.60;11.37;;;;;;;6.29;45.64;101581.50;4981504;28;20026;-70
2022/03/11 02:43:42;;;;;;;19.00;11.20;;;;;;;6.28;45.72;101591.22;4977520;28;20026;-70
2022/03/11 02:46:08;;;;;;;17.60;10.90;;;;;;;6.27;45.58;101579.00;4981407;28;20351;-71
2022/03/11 02:48:34;;;;;;;19.47;10.90;;;;;;;6.27;45.69;101586.06;4977340;28;20027;-72
2022/03/11 02:50:59;;;;;;;19.93;10.90;;;;;;;6.24;45.75;101579.25;4980673;28;20018;-71
2022/03/11 02:53:24;;;;;;;18.10;11.23;;;;;;;6.22;45.80;101575.91;4981011;28;20514;-70
2022/03/11 02:55:50;;;;;;;20.37;11.50;;;;;;;6.21;45.87;101576.88;4979664;28;20029;-71
2022/03/11 02:58:15;;;;;;;22.97;11.67;;;;;;;6.22;45.77;101575.91;4977228;28;20465;-71
2022/03/11 03:00:40;;;;;;;17.50;10.13;;;;;;;6.16;46.02;101573.75;4978991;28;20034;-71
2022/03/11 03:03:06;;;;;;;19.33;11.23;;;;;;;6.14;46.18;101573.06;4982012;28;20037;-71
2022/03/11 03:05:31;;;;;;;19.63;10.80;;;;;;;6.05;46.12;101557.97;4979317;28;20031;-71
2022/03/11 03:07:57;;;;;;;18.50;11.03;;;;;;;6.13;46.14;101569.59;4976956;28;20023;-71
2022/03/11 03:10:22;;;;;;;19.23;10.93;;;;;;;6.10;46.26;101574.28;4973064;28;20022;-71
2022/03/11 03:12:47;;;;;;;18.90;10.87;;;;;;;6.04;46.15;101561.56;4976166;28;20030;-71
2022/03/11 03:15:12;;;;;;;22.77;11.00;;;;;;;6.06;46.20;101565.75;4980165;28;20033;-71
2022/03/11 03:17:38;;;;;;;20.53;11.00;;;;;;;6.08;46.15;101569.13;4976345;28;20398;-71
2022/03/11 03:20:05;;;;;;;19.67;11.67;;;;;;;6.06;46.23;101570.19;4974177;28;20491;-70
2022/03/11 03:22:31;;;;;;;21.17;11.60;;;;;;;6.06;46.21;101562.25;4976348;28;20122;-71
2022/03/11 03:24:56;;;;;;;18.97;10.70;;;;;;;6.07;46.08;101566.56;4978299;28;20510;-72
2022/03/11 03:27:21;;;;;;;20.87;11.90;;;;;;;6.06;46.24;101562.25;4981953;28;20113;-71
2022/03/11 03:29:47;;;;;;;19.67;10.63;;;;;;;5.94;46.35;101555.34;4974151;28;20022;-71
2022/03/11 03:32:12;;;;;;;17.90;10.40;;;;;;;5.98;46.45;101556.78;4981045;28;20096;-70
2022/03/11 03:34:38;;;;;;;20.97;11.33;;;;;;;6.03;46.23;101565.16;4977972;28;20446;-71
2022/03/11 03:37:07;;;;;;;24.03;10.97;;;;;;;6.00;46.31;101557.50;4975821;28;20027;-72
2022/03/11 03:39:33;;;;;;;18.50;10.27;;;;;;;5.97;46.30;101555.09;4977060;28;20030;-70
2022/03/11 03:41:58;;;;;;;18.53;11.30;;;;;;;6.00;46.34;101560.13;4977927;28;20030;-70
2022/03/11 03:44:23;;;;;;;20.63;11.03;;;;;;;5.99;46.31;101553.19;4962147;28;20117;-70
2022/03/11 03:46:49;;;;;;;20.50;10.93;;;;;;;5.98;46.13;101548.88;4978295;28;20026;-71
2022/03/11 03:49:15;;;;;;;18.57;10.97;;;;;;;5.94;46.41;101548.28;4977908;28;20398;-71
2022/03/11 03:51:41;;;;;;;22.50;11.40;;;;;;;5.99;46.26;101555.81;4978509;28;20038;-72
2022/03/11 03:54:09;;;;;;;23.40;10.87;;;;;;;6.00;46.20;101550.41;4973644;28;20494;-70
2022/03/11 03:56:36;;;;;;;25.38;10.82;;;;;;;5.97;46.12;101550.66;4969180;28;20033;-70
2022/03/11 03:59:05;;;;;;;16.70;10.13;;;;;;;5.99;46.38;101554.03;4978983;28;20025;-70
2022/03/11 04:01:41;;;;;;;23.77;10.93;;;;;;;5.94;46.27;101548.28;4974461;28;20031;-70
2022/03/11 04:04:08;;;;;;;20.63;10.53;;;;;;;5.89;46.34;101538.13;4983558;28;20408;-70
2022/03/11 04:06:35;;;;;;;19.87;10.53;;;;;;;5.91;46.35;101551.16;4977599;28;20036;-71
2022/03/11 04:09:03;;;;;;;22.97;10.73;;;;;;;5.87;46.33;101541.81;4977673;28;20073;-70
2022/03/11 04:11:28;;;;;;;15.60;10.40;;;;;;;5.79;46.57;101533.69;4964015;28;20049;-70
2022/03/11 04:13:55;;;;;;;18.20;10.20;;;;;;;5.85;46.53;101546.38;4971697;28;20483;-71
2022/03/11 04:16:21;;;;;;;22.47;10.60;;;;;;;5.83;46.27;101549.13;4975484;28;20121;-70
2022/03/11 04:18:47;;;;;;;21.47;10.40;;;;;;;5.78;46.39;101540.75;4975479;28;20177;-71
2022/03/11 04:21:13;;;;;;;20.47;10.30;;;;;;;5.76;46.69;101534.72;4977629;28;20046;-70
2022/03/11 04:23:40;;;;;;;21.23;10.70;;;;;;;5.81;46.49;101534.41;4979234;28;20032;-70
2022/03/11 04:26:05;;;;;;;19.27;10.03;;;;;;;5.78;46.63;101537.25;4976237;28;20112;-71
2022/03/11 04:28:31;;;;;;;20.57;10.70;;;;;;;5.76;46.49;101529.47;4973977;28;20182;-71
2022/03/11 04:30:56;;;;;;;15.77;10.17;;;;;;;5.79;46.53;101531.03;4975083;28;20038;-71
2022/03/11 04:33:22;;;;;;;20.97;10.60;;;;;;;5.76;46.64;101533.91;4978516;28;20110;-71
2022/03/11 04:35:47;;;;;;;26.47;10.87;;;;;;;5.69;46.84;101530.91;4978622;28;20105;-70
2022/03/11 04:38:12;;;;;;;17.33;10.30;;;;;;;5.69;46.67;101530.91;4960771;28;20034;-71
2022/03/11 04:40:38;;;;;;;19.17;10.20;;;;;;;5.70;46.73;101535.22;4974938;28;20060;-70
2022/03/11 04:43:03;;;;;;;18.97;9.97;;;;;;;5.65;46.87;101518.94;4956620;28;20027;-71
2022/03/11 04:45:28;;;;;;;22.77;10.30;;;;;;;5.63;46.78;101523.50;4979237;28;20030;-70
2022/03/11 04:47:54;;;;;;;22.13;9.53;;;;;;;5.63;46.99;101520.88;4974334;28;20037;-70
2022/03/11 04:50:19;;;;;;;20.93;10.20;;;;;;;5.58;46.75;101518.59;4975112;28;20046;-71
2022/03/11 04:52:44;;;;;;;21.13;9.87;;;;;;;5.59;46.91;101522.09;4977311;28;20450;-70
2022/03/11 04:55:10;;;;;;;18.10;9.77;;;;;;;5.61;46.95;101525.44;4974982;28;20030;-70
2022/03/11 04:57:35;;;;;;;18.90;10.00;;;;;;;5.60;46.92;101532.50;4976321;28;20060;-70
2022/03/11 05:00:03;;;;;;;15.23;9.20;;;;;;;5.58;46.87;101528.31;4974925;28;20055;-71
2022/03/11 05:02:29;;;;;;;18.30;10.47;;;;;;;5.61;46.87;101522.78;4980254;28;20034;-70
2022/03/11 05:04:54;;;;;;;19.70;10.27;;;;;;;5.58;47.07;101525.69;4982698;28;20089;-70
2022/03/11 05:07:20;;;;;;;16.97;9.73;;;;;;;5.50;46.88;101507.84;4975381;28;20065;-71
2022/03/11 05:09:46;;;;;;;21.63;10.57;;;;;;;5.48;47.32;101520.28;4972102;28;20631;-71
2022/03/11 05:12:11;;;;;;;20.17;10.30;;;;;;;5.47;46.93;101510.69;4984011;28;20030;-71
2022/03/11 05:14:37;;;;;;;21.03;10.03;;;;;;;5.45;47.38;101506.50;4982753;28;20510;-70
2022/03/11 05:17:03;;;;;;;18.07;9.67;;;;;;;5.50;47.23;101514.91;4984239;28;20031;-70
2022/03/11 05:19:28;;;;;;;19.97;9.13;;;;;;;5.44;47.43;101505.69;4985199;28;20034;-70
2022/03/11 05:21:54;;;;;;;22.17;10.67;;;;;;;5.44;47.41;101495.13;4978352;28;20043;-71
2022/03/11 05:24:19;;;;;;;18.23;9.87;;;;;;;5.45;47.43;101507.34;4980122;28;20040;-70
2022/03/11 05:26:44;;;;;;;17.70;9.33;;;;;;;5.52;47.28;101513.00;4991304;28;20037;-70
2022/03/11 05:29:10;;;;;;;17.60;9.83;;;;;;;5.46;47.42;101498.50;4984402;28;20488;-71
2022/03/11 05:31:35;;;;;;;16.27;8.50;;;;;;;5.47;47.52;101505.44;4980780;28;20076;-70
2022/03/11 05:34:01;;;;;;;18.43;9.90;;;;;;;5.47;47.65;101509.84;4983187;28;20038;-72
2022/03/11 05:36:26;;;;;;;20.60;9.63;;;;;;;5.43;47.56;101503.16;4981499;28;20038;-70
2022/03/11 05:38:51;;;;;;;18.93;10.00;;;;;;;5.38;47.82;101495.63;4982512;28;20038;-71
2022/03/11 05:41:17;;;;;;;16.43;9.20;;;;;;;5.36;47.82;101497.53;4970550;28;20027;-70
2022/03/11 05:43:43;;;;;;;19.87;10.00;;;;;;;5.38;48.04;101500.91;4985464;28;20062;-70
2022/03/11 05:46:09;;;;;;;18.23;9.40;;;;;;;5.36;47.75;101496.72;4984324;28;20030;-71
2022/03/11 05:48:34;;;;;;;17.27;9.50;;;;;;;5.39;47.91;101494.66;4982807;28;20101;-70
2022/03/11 05:51:00;;;;;;;17.70;9.73;;;;;;;5.31;48.03;101497.06;4987241;28;20041;-71
2022/03/11 05:53:26;;;;;;;20.60;9.67;;;;;;;5.27;48.44;101493.84;4979815;28;20031;-70
2022/03/11 05:55:51;;;;;;;17.50;9.47;;;;;;;5.30;48.39;101503.31;4974922;28;20391;-70
2022/03/11 05:58:16;;;;;;;21.90;10.30;;;;;;;5.32;48.03;101504.03;4980014;28;20722;-71
2022/03/11 06:00:42;;;;;;;16.30;9.07;;;;;;;5.28;48.21;101492.88;4984137;28;20030;-70
2022/03/11 06:03:07;;;;;;;17.73;10.20;;;;;;;5.28;48.42;101484.16;4985311;28;20026;-70
2022/03/11 06:05:33;;;;;;;19.53;9.97;;;;;;;5.26;48.55;101496.59;4968585;28;20026;-71
2022/03/11 06:07:59;;;;;;;18.40;9.30;;;;;;;5.22;48.31;101489.91;4981163;28;20050;-70
2022/03/11 06:10:24;;;;;;;21.63;10.00;;;;;;;5.22;48.55;101487.28;4981057;28;20058;-71
2022/03/11 06:12:50;;;;;;;17.27;9.07;;;;;;;5.26;48.49;101496.59;4980178;28;20035;-70
2022/03/11 06:15:15;;;;;;;16.40;9.97;;;;;;;5.26;48.91;101496.59;4979587;28;20031;-71
2022/03/11 06:17:41;;;;;;;18.43;9.90;;;;;;;5.21;49.01;101489.06;4970626;28;20026;-71
2022/03/11 06:20:08;;;;;;;18.87;10.40;;;;;;;5.25;49.05;101501.03;4979212;28;20058;-70
2022/03/11 06:22:36;;;;;;;18.67;9.43;;;;;;;5.26;48.97;101489.53;4985454;28;20031;-70
2022/03/11 06:25:02;;;;;;;20.07;9.90;;;;;;;5.31;49.19;101498.88;4983252;28;20105;-71
2022/03/11 06:27:27;;;;;;;21.93;10.50;;;;;;;5.27;49.44;101493.00;4979865;28;20076;-70
2022/03/11 06:29:53;;;;;;;17.87;10.10;;;;;;;5.36;49.15;101496.72;4984000;28;20030;-70
2022/03/11 06:32:18;;;;;;;17.07;9.93;;;;;;;5.39;49.35;101501.72;4987456;28;20026;-69
2022/03/11 06:34:44;;;;;;;15.17;9.63;;;;;;;5.40;49.43;101496.34;4985935;28;20494;-70
2022/03/11 06:37:09;;;;;;;20.00;11.00;;;;;;;5.43;49.34;101506.63;4984682;28;20050;-70
2022/03/11 06:39:34;;;;;;;17.13;10.03;;;;;;;5.41;49.41;101491.91;4977464;28;20053;-70
2022/03/11 06:41:59;;;;;;;17.87;9.80;;;;;;;5.51;49.50;101500.78;4978872;28;20026;-70
2022/03/11 06:44:25;;;;;;;17.43;9.97;;;;;;;5.53;49.52;101501.50;4983800;28;20444;-70
2022/03/11 06:46:50;;;;;;;22.53;10.70;;;;;;;5.53;49.56;101501.50;4980830;28;20030;-70
2022/03/11 06:49:15;;;;;;;21.67;10.57;;;;;;;5.54;49.47;101498.75;4976622;28;20023;-70
2022/03/11 06:51:41;;;;;;;19.37;10.60;;;;;;;5.56;49.55;101493.34;4974561;28;20142;-70
2022/03/11 06:54:07;;;;;;;15.53;9.90;;;;;;;5.62;49.50;101498.13;4984353;28;20034;-70
2022/03/11 06:56:34;;;;;;;21.03;10.27;;;;;;;5.70;49.53;101498.34;4985076;28;20026;-70
2022/03/11 06:58:59;;;;;;;16.37;10.07;;;;;;;5.76;49.58;101503.09;4973767;28;20034;-70
2022/03/11 07:01:24;;;;;;;21.23;10.47;;;;;;;5.82;49.49;101493.91;4985634;28;20034;-69
2022/03/11 07:03:50;;;;;;;20.37;10.20;;;;;;;5.85;49.61;101497.13;4984921;28;20030;-69
2022/03/11 07:06:15;;;;;;;20.17;10.50;;;;;;;5.83;50.01;101485.88;4986585;28;20041;-69
2022/03/11 07:08:41;;;;;;;20.90;10.87;;;;;;;5.93;49.73;101507.06;4969349;28;20033;-69
2022/03/11 07:11:06;;;;;;;19.63;10.90;;;;;;;6.03;49.33;101483.41;4974058;28;20038;-70
2022/03/11 07:13:31;;;;;;;20.17;11.23;;;;;;;6.04;49.25;101482.47;4987893;28;20026;-70
2022/03/11 07:15:57;;;;;;;21.50;11.07;;;;;;;6.07;49.33;101482.19;4981642;28;20026;-70
2022/03/11 07:18:23;;;;;;;19.07;10.63;;;;;;;6.01;49.29;101458.97;4979247;28;20701;-70
2022/03/11 07:20:48;;;;;;;20.07;10.43;;;;;;;6.13;49.02;101471.19;4986377;28;20045;-69
2022/03/11 07:23:13;;;;;;;22.53;10.60;;;;;;;6.19;49.29;101478.56;4977738;28;20026;-69
2022/03/11 07:25:39;;;;;;;21.60;11.40;;;;;;;6.33;49.43;101483.53;4979813;28;20057;-70
2022/03/11 07:28:04;;;;;;;23.53;10.87;;;;;;;6.36;49.22;101478.03;4977697;28;20119;-70
2022/03/11 07:30:30;;;;;;;18.77;10.40;;;;;;;6.48;49.11;101476.16;4972736;28;20141;-69
2022/03/11 07:32:55;;;;;;;24.13;11.33;;;;;;;6.53;49.11;101479.25;4975952;28;20089;-70
2022/03/11 07:35:20;;;;;;;25.10;10.93;;;;;;;6.61;48.52;101494.41;4983943;28;20401;-69
2022/03/11 07:37:46;;;;;;;21.63;10.80;;;;;;;6.66;48.93;101484.34;4976005;28;20038;-71
2022/03/11 07:40:12;;;;;;;23.13;11.37;;;;;;;6.70;48.71;101480.47;4986775;28;20039;-70
2022/03/11 07:42:42;;;;;;;23.30;11.77;;;;;;;6.79;48.83;101480.53;4987714;28;20066;-70
2022/03/11 07:45:17;;;;;;;23.70;11.97;;;;;;;6.81;48.70;101475.09;4985429;28;20042;-69
2022/03/11 07:47:42;;;;;;;21.53;11.40;;;;;;;6.89;48.42;101485.00;4973016;28;20037;-69
2022/03/11 07:50:09;;;;;;;21.30;11.23;;;;;;;7.02;48.44;101496.22;4976316;28;20026;-69
2022/03/11 07:52:35;;;;;;;21.50;11.47;;;;;;;7.04;48.41;101479.25;4981287;28;20069;-69
2022/03/11 07:55:01;;;;;;;22.10;12.13;;;;;;;7.15;48.29;101492.38;4986545;28;20022;-70
2022/03/11 07:57:26;;;;;;;21.77;12.03;;;;;;;7.24;48.26;101485.47;4980998;28;20659;-69
2022/03/11 07:59:51;;;;;;;21.17;11.90;;;;;;;7.26;48.04;101478.25;4982477;28;20446;-68
2022/03/11 08:02:16;;;;;;;21.17;11.80;;;;;;;7.35;47.72;101481.91;4978488;28;20031;-69
2022/03/11 08:04:42;;;;;;;21.90;12.40;;;;;;;7.36;47.32;101484.41;4985616;28;20026;-69
2022/03/11 08:07:10;;;;;;;24.70;11.97;;;;;;;7.41;47.51;101471.63;4979296;28;20588;-70
2022/03/11 08:09:36;;;;;;;23.33;12.40;;;;;;;7.50;47.43;101469.13;4960164;28;20130;-69
2022/03/11 08:12:02;;;;;;;22.60;12.53;;;;;;;7.54;47.52;101467.91;4980764;28;20101;-68
2022/03/11 08:14:28;;;;;;;24.67;11.83;;;;;;;7.60;47.01;101465.56;4976310;28;20030;-69
2022/03/11 08:16:53;;;;;;;25.17;11.97;;;;;;;7.62;46.83;101454.84;4981653;28;20049;-69
2022/03/11 08:19:18;;;;;;;21.90;11.83;;;;;;;7.64;46.77;101468.75;4981031;28;20121;-69
2022/03/11 08:21:44;;;;;;;23.60;12.07;;;;;;;7.67;47.04;101450.81;4982395;28;20042;-69
2022/03/11 08:24:09;;;;;;;22.40;11.63;;;;;;;7.74;46.74;101457.22;4981698;28;20478;-69
2022/03/11 08:26:34;;;;;;;24.67;13.00;;;;;;;7.78;47.04;101450.69;4981654;28;20038;-69
2022/03/11 08:29:00;;;;;;;22.60;12.90;;;;;;;7.90;47.05;101447.94;4978738;28;20033;-69
2022/03/11 08:31:25;;;;;;;22.57;12.73;;;;;;;7.93;46.96;101452.94;4978898;28;20053;-69
2022/03/11 08:33:50;;;;;;;22.23;12.45;;;;;;;7.93;46.80;101437.06;4975550;28;20379;-69
2022/03/11 08:36:15;;;;;;;27.27;12.75;;;;;;;8.02;47.00;101455.56;4986094;28;20398;-69
2022/03/11 08:38:41;;;;;;;24.63;12.85;;;;;;;8.05;46.85;101438.59;4979921;28;20057;-68
2022/03/11 08:41:09;;;;;;;25.63;12.65;;;;;;;8.13;46.76;101449.34;4986922;28;20332;-69
2022/03/11 08:43:38;;;;;;;26.97;12.83;;;;;;;8.23;47.00;101455.44;4986498;28;20428;-69
2022/03/11 08:46:07;;;;;;;24.90;12.93;;;;;;;8.32;46.53;101446.66;4974182;28;20026;-69
2022/03/11 08:48:33;;;;;;;24.95;13.23;;;;;;;8.38;46.44;101448.78;4979551;28;20037;-69
2022/03/11 08:50:58;;;;;;;24.00;13.23;;;;;;;8.45;46.64;101446.41;4982836;28;20030;-69
2022/03/11 08:53:23;;;;;;;24.60;12.40;;;;;;;8.51;46.61;101450.28;4984876;28;20056;-69
2022/03/11 08:55:48;;;;;;;20.25;13.05;;;;;;;8.53;46.40;101437.75;4980639;28;20490;-69
2022/03/11 08:58:14;;;;;;;25.02;13.85;;;;;;;8.58;46.66;101425.75;4981021;28;20116;-69
2022/03/11 09:00:41;;;;;;;22.85;13.18;;;;;;;8.64;46.38;101435.75;4985497;28;20112;-69
2022/03/11 09:03:06;;;;;;;25.95;14.18;;;;;;;8.69;46.60;101432.69;4975499;28;20022;-69
2022/03/11 09:05:31;;;;;;;25.02;13.68;;;;;;;8.86;46.47;101439.88;4977357;28;20505;-69
2022/03/11 09:07:58;;;;;;;26.90;13.88;;;;;;;8.88;45.98;101431.78;4990211;28;20038;-69
2022/03/11 09:10:23;;;;;;;28.13;13.27;;;;;;;8.86;45.99;101434.59;4977717;28;20030;-69
2022/03/11 09:12:48;;;;;;;25.20;12.75;;;;;;;8.99;46.08;101423.69;4978340;28;20718;-69
2022/03/11 09:15:15;;;;;;;27.05;13.60;;;;;;;9.03;45.73;101433.00;4978495;28;20048;-69
2022/03/11 09:17:40;;;;;;;25.92;13.27;;;;;;;9.15;45.86;101439.75;4962875;28;20034;-69
2022/03/11 09:20:06;;;;;;;28.30;13.40;;;;;;;9.17;45.53;101434.31;4985111;28;20092;-69
2022/03/11 09:22:32;;;;;;;34.72;14.25;;;;;;;9.20;45.67;101411.00;4977976;28;20034;-69
2022/03/11 09:24:58;;;;;;;25.55;13.43;;;;;;;9.26;45.38;101404.31;4984320;28;20030;-69
2022/03/11 09:27:24;;;;;;;24.98;13.48;;;;;;;9.34;45.57;101420.28;4988435;28;20041;-69
2022/03/11 09:29:49;;;;;;;22.92;13.77;;;;;;;9.32;45.23;101404.53;4987860;28;20113;-69
2022/03/11 09:32:15;;;;;;;23.88;13.35;;;;;;;9.37;45.34;101404.09;4985924;28;20038;-69
2022/03/11 09:34:41;;;;;;;31.05;14.10;;;;;;;9.38;45.19;101416.34;4979888;28;20113;-69
2022/03/11 09:37:07;;;;;;;24.98;14.05;;;;;;;9.47;45.30;101401.38;4987524;28;20035;-69
2022/03/11 09:39:32;;;;;;;31.67;12.82;;;;;;;9.57;45.20;101405.63;4980903;28;20033;-69
2022/03/11 09:41:58;;;;;;;34.05;14.10;;;;;;;9.63;45.00;101409.50;4983053;28;20038;-69
2022/03/11 09:44:24;;;;;;;26.52;12.60;;;;;;;9.77;45.30;101410.78;4988472;28;20030;-69
2022/03/11 09:46:50;;;;;;;26.33;13.18;;;;;;;9.80;45.18;101394.56;4985041;28;20033;-69
2022/03/11 09:49:16;;;;;;;30.98;13.15;;;;;;;10.06;45.50;101397.28;4969800;28;20030;-70
2022/03/11 09:51:45;;;;;;;31.30;14.18;;;;;;;10.17;45.37;101381.97;4974737;28;20073;-69
2022/03/11 09:54:10;;;;;;;34.08;13.95;;;;;;;10.23;45.01;101375.22;4975959;28;20183;-69
2022/03/11 09:56:38;;;;;;;25.88;12.95;;;;;;;10.29;45.20;101368.47;4978770;28;20089;-69
2022/03/11 09:59:04;;;;;;;29.08;13.27;;;;;;;10.47;45.09;101388.66;4985838;28;20029;-69
2022/03/11 10:01:29;;;;;;;23.20;12.95;;;;;;;10.62;45.04;101350.91;4993896;28;20034;-69
2022/03/11 10:03:55;;;;;;;26.15;12.88;;;;;;;10.74;45.04;101353.13;4985368;28;20098;-69
2022/03/11 10:06:37;;;;;;;25.48;13.25;;;;;;;10.91;44.94;101364.66;4985382;28;20038;-69
2022/03/11 10:09:02;;;;;;;22.65;12.18;;;;;;;10.91;44.28;101369.13;4977978;28;20026;-69
2022/03/11 10:11:28;;;;;;;25.52;13.18;;;;;;;10.96;44.75;101348.22;4989627;28;20026;-69
2022/03/11 10:14:03;;;;;;;25.52;12.85;;;;;;;11.14;44.66;101354.28;4984175;28;20072;-69
2022/03/11 10:16:29;;;;;;;26.13;12.88;;;;;;;11.34;44.43;101354.84;4969730;28;20080;-69
2022/03/11 10:19:00;;;;;;;30.77;12.98;;;;;;;11.43;44.17;101352.03;4981522;28;20031;-69
2022/03/11 10:21:40;;;;;;;23.67;11.88;;;;;;;11.48;44.12;101359.50;4980716;28;20512;-68
2022/03/11 10:24:23;;;;;;;25.83;12.55;;;;;;;11.54;44.02;101353.53;4979520;28;20027;-70
2022/03/11 10:26:51;;;;;;;24.42;12.32;;;;;;;11.53;43.86;101359.00;4971806;28;20090;-70
2022/03/11 10:29:19;;;;;;;21.70;11.57;;;;;;;11.55;43.62;101357.84;4979479;28;20065;-70
2022/03/11 10:31:46;;;;;;;21.77;11.88;;;;;;;11.61;43.59;101338.59;4973302;28;20082;-70
2022/03/11 10:34:20;;;;;;;23.55;12.38;;;;;;;11.70;43.80;101331.44;4975425;28;20562;-70
2022/03/11 10:36:47;;;;;;;22.50;12.93;;;;;;;11.76;43.64;101354.72;4986923;28;20018;-70
2022/03/11 10:39:14;;;;;;;23.83;12.60;;;;;;;11.85;43.34;101336.94;4975643;28;20386;-69
2022/03/11 10:41:40;;;;;;;26.73;13.00;;;;;;;11.87;43.68;101327.81;4989497;28;20077;-70
2022/03/11 10:44:08;;;;;;;28.95;13.98;;;;;;;11.97;43.28;101323.16;4982684;28;20034;-70
2022/03/11 10:46:34;;;;;;;31.80;12.98;;;;;;;12.00;43.23;101335.28;4983966;28;20033;-70
2022/03/11 10:49:00;;;;;;;32.55;12.63;;;;;;;12.00;43.09;101322.81;4978339;28;20023;-70
2022/03/11 10:51:28;;;;;;;26.30;12.70;;;;;;;12.01;43.44;101313.00;4978363;28;20639;-69
2022/03/11 10:53:55;;;;;;;24.88;13.35;;;;;;;12.02;43.31;101312.00;4986642;28;20029;-70
2022/03/11 10:56:47;;;;;;;23.08;13.27;;;;;;;12.07;43.21;101313.13;4988409;28;20034;-70
2022/03/11 10:59:28;;;;;;;23.80;12.90;;;;;;;12.10;43.42;101303.97;4979769;28;20442;-69
2022/03/11 11:01:57;;;;;;;27.83;13.48;;;;;;;12.12;43.19;101322.44;4982617;28;20043;-69
2022/03/11 11:04:23;;;;;;;;;;;;;;;12.23;43.58;101316.78;4989543;28;20034;-70
2022/03/11 11:06:49;;;;;;;32.33;13.18;;;;;;;12.23;43.22;101306.97;4970323;28;19910;-70
2022/03/11 11:09:17;;;;;;;26.42;13.00;;;;;;;12.28;43.33;101301.13;4970657;28;20059;-70
2022/03/11 11:11:42;;;;;;;34.85;12.68;;;;;;;12.35;43.08;101299.44;4981062;28;20038;-70